createdAt,value
2019-06-26T00:00:57.128Z,79.5
2019-06-26T00:02:11.255Z,78.7
2019-06-26T00:03:25.445Z,78.9
2019-06-26T00:04:39.496Z,79.1
2019-06-26T00:05:53.693Z,79.3
2019-06-26T00:07:07.735Z,79.2
2019-06-26T00:08:21.862Z,79.3
2019-06-26T00:10:50.114Z,78.8
2019-06-26T00:12:04.227Z,79
2019-06-26T00:13:18.349Z,79.2
2019-06-26T00:14:32.449Z,79.8
2019-06-26T00:15:46.629Z,80
2019-06-26T00:17:00.695Z,80.2
2019-06-26T00:18:14.870Z,79.8
2019-06-26T00:19:29.094Z,79.8
2019-06-26T00:20:43.083Z,80
2019-06-26T00:21:57.300Z,79.7
2019-06-26T00:25:39.550Z,80.2
2019-06-26T00:26:53.756Z,80.4
2019-06-26T00:28:08.889Z,80
2019-06-26T00:29:21.910Z,79.5
2019-06-26T00:30:36.036Z,79.7
2019-06-26T00:31:50.143Z,80.7
2019-06-26T00:33:08.796Z,79.6
2019-06-26T00:34:23.557Z,79.8
2019-06-26T00:35:32.511Z,80.4
2019-06-26T00:36:46.628Z,79.7
2019-06-26T00:40:29.073Z,78.7
2019-06-26T00:41:43.153Z,81
2019-06-26T00:43:01.070Z,79.7
2019-06-26T00:44:15.007Z,79.5
2019-06-26T00:45:25.572Z,80
2019-06-26T00:46:39.665Z,81.5
2019-06-26T00:47:53.794Z,80.5
2019-06-26T00:49:07.839Z,79.7
2019-06-26T00:50:21.975Z,79.3
2019-06-26T00:51:36.170Z,80.4
2019-06-26T00:52:50.249Z,79.4
2019-06-26T00:54:04.353Z,81.6
2019-06-26T00:55:18.442Z,81.1
2019-06-26T00:56:32.567Z,80.8
2019-06-26T00:57:46.683Z,80.4
2019-06-26T00:59:00.827Z,80.8
2019-06-26T01:00:15.004Z,80.6
2019-06-26T01:01:29.063Z,80.8
2019-06-26T01:02:45.796Z,81.6
2019-06-26T01:05:11.398Z,81
2019-06-26T01:06:25.522Z,81.3
2019-06-26T01:08:53.761Z,81.2
2019-06-26T01:10:07.893Z,81.7
2019-06-26T01:11:22.011Z,80.8
2019-06-26T01:12:36.133Z,81.8
2019-06-26T01:13:51.000Z,81.8
2019-06-26T01:15:04.380Z,81.8
2019-06-26T01:16:18.565Z,82.2
2019-06-26T01:17:32.615Z,82.2
2019-06-26T01:18:46.821Z,81.9
2019-06-26T01:20:00.895Z,81.1
2019-06-26T01:21:14.971Z,82.5
2019-06-26T01:22:29.393Z,82
2019-06-26T01:23:43.224Z,81.9
2019-06-26T01:24:57.438Z,81.9
2019-06-26T01:27:25.591Z,82.5
2019-06-26T01:28:39.709Z,83.5
2019-06-26T01:29:53.830Z,83.5
2019-06-26T01:31:07.940Z,83
2019-06-26T01:32:22.064Z,82.8
2019-06-26T01:33:36.179Z,83.3
2019-06-26T01:34:50.306Z,83.3
2019-06-26T01:36:04.550Z,83.1
2019-06-26T01:37:18.549Z,82.3
2019-06-26T01:38:32.661Z,82.3
2019-06-26T01:39:46.813Z,82.2
2019-06-26T01:41:00.904Z,82.5
2019-06-26T01:42:15.023Z,83.6
2019-06-26T01:43:34.387Z,82
2019-06-26T01:44:43.513Z,82.2
2019-06-26T01:45:57.386Z,82.2
2019-06-26T01:47:11.506Z,81.9
2019-06-26T01:48:25.654Z,82.9
2019-06-26T01:49:39.826Z,82.4
2019-06-26T01:52:07.990Z,82.3
2019-06-26T01:53:22.112Z,83.4
2019-06-26T01:54:36.238Z,83.5
2019-06-26T01:55:50.362Z,83.2
2019-06-26T01:57:04.561Z,83.5
2019-06-26T01:58:18.660Z,83.5
2019-06-26T01:59:32.708Z,83.5
2019-06-26T02:00:46.951Z,83.6
2019-06-26T02:02:00.960Z,84.3
2019-06-26T02:03:15.078Z,83.4
2019-06-26T02:04:29.241Z,83.9
2019-06-26T02:05:43.311Z,83.9
2019-06-26T02:06:57.492Z,83.3
2019-06-26T02:08:11.571Z,83.8
2019-06-26T02:09:25.784Z,83.4
2019-06-26T02:10:39.814Z,83.4
2019-06-26T02:11:53.940Z,84.9
2019-06-26T02:13:08.084Z,83.4
2019-06-26T02:14:22.200Z,83.8
2019-06-26T02:15:36.346Z,84.4
2019-06-26T02:16:50.429Z,83.3
2019-06-26T02:18:04.528Z,83.5
2019-06-26T02:19:18.723Z,83.5
2019-06-26T02:20:32.768Z,83.1
2019-06-26T02:21:46.890Z,83.6
2019-06-26T02:23:01.009Z,84.1
2019-06-26T02:24:15.137Z,83.4
2019-06-26T02:25:29.284Z,83.6
2019-06-26T02:26:43.392Z,84
2019-06-26T02:29:11.621Z,84.1
2019-06-26T02:30:25.750Z,84.2
2019-06-26T02:31:39.882Z,84.4
2019-06-26T02:32:58.848Z,85.2
2019-06-26T02:34:08.134Z,84.2
2019-06-26T02:35:22.342Z,83.3
2019-06-26T02:36:36.853Z,84
2019-06-26T02:37:50.544Z,83.6
2019-06-26T02:39:04.806Z,83.7
2019-06-26T02:41:32.844Z,85
2019-06-26T02:42:46.983Z,85
2019-06-26T02:44:01.088Z,85.1
2019-06-26T02:45:15.209Z,85.1
2019-06-26T02:46:29.461Z,85.3
2019-06-26T02:47:43.489Z,85.4
2019-06-26T02:48:57.579Z,85.5
2019-06-26T02:50:11.697Z,85.4
2019-06-26T02:51:25.819Z,85.8
2019-06-26T02:53:54.077Z,85.9
2019-06-26T02:56:22.317Z,85.9
2019-06-26T02:57:36.505Z,86.4
2019-06-26T02:58:50.561Z,86.3
2019-06-26T03:00:04.790Z,86.4
2019-06-26T03:01:18.917Z,86.9
2019-06-26T03:02:32.930Z,87.5
2019-06-26T03:03:47.045Z,87.3
2019-06-26T03:06:15.288Z,87.5
2019-06-26T03:08:43.531Z,88.2
2019-06-26T03:09:57.676Z,88.3
2019-06-26T03:11:11.781Z,88.3
2019-06-26T03:12:25.914Z,88.4
2019-06-26T03:13:40.042Z,88
2019-06-26T03:14:54.241Z,88.3
2019-06-26T03:16:08.294Z,88.8
2019-06-26T03:18:37.429Z,88.8
2019-06-26T03:22:18.936Z,88.3
2019-06-26T03:23:33.016Z,87.8
2019-06-26T03:24:47.287Z,87.3
2019-06-26T03:26:01.271Z,87.6
2019-06-26T03:27:15.381Z,86.7
2019-06-26T03:28:29.576Z,86.8
2019-06-26T03:30:57.836Z,86.8
2019-06-26T03:33:29.446Z,87.3
2019-06-26T03:34:40.154Z,86.9
2019-06-26T03:35:54.269Z,87.1
2019-06-26T03:37:08.444Z,87.1
2019-06-26T03:38:22.591Z,87.4
2019-06-26T03:39:36.633Z,87.1
2019-06-26T03:40:50.782Z,87.5
2019-06-26T03:43:18.991Z,87.2
2019-06-26T03:45:47.274Z,87.3
2019-06-26T03:47:01.354Z,87.1
2019-06-26T03:48:15.505Z,87.4
2019-06-26T03:49:29.613Z,87.1
2019-06-26T03:50:43.820Z,86.6
2019-06-26T03:51:57.827Z,86.9
2019-06-26T03:53:11.963Z,86.9
2019-06-26T03:54:26.082Z,86.4
2019-06-26T03:55:40.200Z,86.1
2019-06-26T03:58:08.451Z,86.4
2019-06-26T03:59:22.598Z,87.3
2019-06-26T04:00:36.704Z,86.5
2019-06-26T04:03:05.039Z,86.1
2019-06-26T04:04:19.062Z,86.2
2019-06-26T04:05:33.209Z,85.7
2019-06-26T04:06:47.302Z,85.6
2019-06-26T04:08:01.433Z,86
2019-06-26T04:09:15.565Z,85.9
2019-06-26T04:10:29.681Z,85.7
2019-06-26T04:11:43.880Z,85.4
2019-06-26T04:12:57.927Z,85.7
2019-06-26T04:14:12.046Z,86.4
2019-06-26T04:15:26.175Z,85.9
2019-06-26T04:16:40.310Z,85.5
2019-06-26T04:17:54.408Z,85.7
2019-06-26T04:19:08.629Z,85.6
2019-06-26T04:20:22.762Z,85.4
2019-06-26T04:22:51.009Z,85.3
2019-06-26T04:24:05.062Z,85.2
2019-06-26T04:25:19.158Z,84.9
2019-06-26T04:27:47.396Z,85
2019-06-26T04:29:01.517Z,85
2019-06-26T04:30:15.647Z,84.8
2019-06-26T04:31:29.758Z,85
2019-06-26T04:32:43.887Z,85
2019-06-26T04:35:12.188Z,83.4
2019-06-26T04:37:40.377Z,82.8
2019-06-26T04:38:54.497Z,82.3
2019-06-26T04:40:08.625Z,82
2019-06-26T04:41:22.755Z,82.1
2019-06-26T04:42:36.875Z,80.9
2019-06-26T04:45:05.196Z,80
2019-06-26T04:47:33.373Z,79.5
2019-06-26T04:48:47.501Z,77.7
2019-06-26T04:50:01.613Z,78.8
2019-06-26T04:52:29.853Z,76.3
2019-06-26T04:53:44.046Z,78.8
2019-06-26T04:54:58.191Z,78.4
2019-06-26T04:57:26.338Z,77.5
2019-06-26T04:58:40.520Z,77.2
2019-06-26T04:59:54.591Z,76.6
2019-06-26T05:01:08.786Z,77.7
2019-06-26T05:02:22.829Z,75.1
2019-06-26T05:03:37.041Z,75.4
2019-06-26T05:04:51.089Z,73.5
2019-06-26T05:06:05.220Z,75
2019-06-26T05:07:19.365Z,75.4
2019-06-26T05:08:33.444Z,74.9
2019-06-26T05:09:47.562Z,74.3
2019-06-26T05:11:01.696Z,74.3
2019-06-26T05:12:15.810Z,72.8
2019-06-26T05:13:29.961Z,74.1
2019-06-26T05:14:44.112Z,73.7
2019-06-26T05:15:58.195Z,74.3
2019-06-26T05:17:12.326Z,73.7
2019-06-26T05:18:26.423Z,74.2
2019-06-26T05:19:40.558Z,73.5
2019-06-26T05:22:08.798Z,74.5
2019-06-26T05:24:37.060Z,73
2019-06-26T05:25:51.190Z,73
2019-06-26T05:27:05.282Z,73.6
2019-06-26T05:28:19.409Z,72
2019-06-26T05:29:33.527Z,72.8
2019-06-26T05:30:47.845Z,72.7
2019-06-26T05:32:01.894Z,73.5
2019-06-26T05:33:15.902Z,75.2
2019-06-26T05:34:30.033Z,72.7
2019-06-26T05:35:44.301Z,72.1
2019-06-26T05:36:58.261Z,73.2
2019-06-26T05:38:12.415Z,73.2
2019-06-26T05:39:26.515Z,73.3
2019-06-26T05:40:40.824Z,70.6
2019-06-26T05:41:54.867Z,70.2
2019-06-26T05:43:08.890Z,71.2
2019-06-26T05:44:23.003Z,72.3
2019-06-26T05:46:51.599Z,72.2
2019-06-26T05:48:05.448Z,71.9
2019-06-26T05:49:19.495Z,72.6
2019-06-26T05:50:33.647Z,72.4
2019-06-26T05:51:47.738Z,73.8
2019-06-26T05:53:01.896Z,70.5
2019-06-26T05:54:16.076Z,71.6
2019-06-26T05:55:30.297Z,72
2019-06-26T05:57:58.478Z,71.7
2019-06-26T05:59:12.494Z,71.7
2019-06-26T06:00:26.710Z,72
2019-06-26T06:01:40.860Z,72.6
2019-06-26T06:02:54.922Z,71.5
2019-06-26T06:04:09.042Z,72.4
2019-06-26T06:05:23.103Z,71.8
2019-06-26T06:06:37.229Z,72
2019-06-26T06:07:51.434Z,72.2
2019-06-26T06:09:05.453Z,71.8
2019-06-26T06:10:19.590Z,69.7
2019-06-26T06:11:33.726Z,71.4
2019-06-26T06:12:47.813Z,71.8
2019-06-26T06:14:01.951Z,70.8
2019-06-26T06:15:16.136Z,71.2
2019-06-26T06:16:30.189Z,70.9
2019-06-26T06:17:44.323Z,69.9
2019-06-26T06:18:58.474Z,70.8
2019-06-26T06:20:12.565Z,68.6
2019-06-26T06:21:26.685Z,66.7
2019-06-26T06:23:54.923Z,65.7
2019-06-26T06:25:09.101Z,68
2019-06-26T06:26:23.274Z,67.9
2019-06-26T06:27:37.336Z,68.6
2019-06-26T06:28:51.485Z,66.9
2019-06-26T06:30:05.556Z,68.1
2019-06-26T06:31:19.666Z,67.9
2019-06-26T06:32:33.825Z,67.9
2019-06-26T06:33:47.969Z,67.9
2019-06-26T06:36:17.814Z,67
2019-06-26T06:39:58.637Z,67.6
2019-06-26T06:42:28.649Z,66.4
2019-06-26T06:43:40.883Z,66.5
2019-06-26T06:44:57.852Z,66.7
2019-06-26T06:46:13.293Z,67.2
2019-06-26T06:47:23.397Z,67.4
2019-06-26T06:49:51.576Z,67.5
2019-06-26T06:51:05.679Z,66.4
2019-06-26T06:52:19.790Z,65.7
2019-06-26T06:53:34.231Z,67.2
2019-06-26T06:54:48.000Z,64.5
2019-06-26T06:56:02.234Z,67.9
2019-06-26T06:57:16.348Z,62.8
2019-06-26T06:58:30.369Z,63.7
2019-06-26T07:00:58.766Z,64.3
2019-06-26T07:03:26.970Z,63.6
2019-06-26T07:04:40.993Z,64.2
2019-06-26T07:05:55.132Z,62.7
2019-06-26T07:07:09.373Z,62.3
2019-06-26T07:08:23.452Z,62.9
2019-06-26T07:10:51.758Z,62.4
2019-06-26T07:12:05.732Z,62.5
2019-06-26T07:13:19.918Z,61.6
2019-06-26T07:15:48.086Z,61.6
2019-06-26T07:17:02.225Z,61.1
2019-06-26T07:18:16.327Z,62.5
2019-06-26T07:19:30.465Z,61.6
2019-06-26T07:20:44.647Z,62.2
2019-06-26T07:21:58.748Z,62.3
2019-06-26T07:23:12.841Z,61.4
2019-06-26T07:24:26.953Z,62.4
2019-06-26T07:25:41.086Z,61.9
2019-06-26T07:26:55.274Z,62
2019-06-26T07:28:09.904Z,61.6
2019-06-26T07:29:23.457Z,61.7
2019-06-26T07:30:37.593Z,62.7
2019-06-26T07:31:51.695Z,63
2019-06-26T07:33:07.157Z,62.4
2019-06-26T07:34:20.015Z,63.5
2019-06-26T07:35:34.063Z,61.3
2019-06-26T07:36:48.182Z,60.8
2019-06-26T07:38:02.331Z,61.3
2019-06-26T07:39:16.447Z,61.4
2019-06-26T07:41:44.697Z,59.5
2019-06-26T07:42:58.847Z,60.4
2019-06-26T07:44:12.975Z,58.6
2019-06-26T07:45:27.045Z,58.4
2019-06-26T07:46:41.175Z,58.4
2019-06-26T07:47:55.314Z,58.1
2019-06-26T07:50:23.546Z,59.3
2019-06-26T07:51:37.680Z,58.3
2019-06-26T07:52:51.790Z,58.9
2019-06-26T07:54:05.994Z,56
2019-06-26T07:55:20.074Z,57.4
2019-06-26T07:56:34.165Z,56.5
2019-06-26T07:57:48.366Z,55.3
2019-06-26T07:59:02.411Z,56.5
2019-06-26T08:00:20.157Z,56.6
2019-06-26T08:02:44.814Z,58.1
2019-06-26T08:05:13.081Z,56.3
2019-06-26T08:06:27.161Z,57
2019-06-26T08:07:41.302Z,56.7
2019-06-26T08:08:55.401Z,57.4
2019-06-26T08:10:09.546Z,58.4
2019-06-26T08:12:37.830Z,60
2019-06-26T08:13:51.910Z,58.5
2019-06-26T08:15:06.023Z,58.6
2019-06-26T08:17:34.357Z,58.2
2019-06-26T08:18:48.482Z,57.1
2019-06-26T08:20:02.602Z,55.8
2019-06-26T08:21:16.645Z,57.8
2019-06-26T08:22:30.833Z,56.3
2019-06-26T08:24:59.095Z,54
2019-06-26T08:27:27.263Z,56.6
2019-06-26T08:28:41.389Z,56.6
2019-06-26T08:29:55.589Z,58.8
2019-06-26T08:31:09.733Z,58.2
2019-06-26T08:32:23.773Z,56.3
2019-06-26T08:33:37.901Z,55.8
2019-06-26T08:34:52.540Z,54.8
2019-06-26T08:37:20.280Z,58.2
2019-06-26T08:38:34.472Z,58.4
2019-06-26T08:39:48.501Z,56.8
2019-06-26T08:41:02.657Z,55.9
2019-06-26T08:42:19.696Z,56
2019-06-26T08:43:34.844Z,55.1
2019-06-26T08:45:59.168Z,59.3
2019-06-26T08:48:28.857Z,58.1
2019-06-26T08:49:41.499Z,59.6
2019-06-26T08:52:09.767Z,56.3
2019-06-26T08:53:23.871Z,56.3
2019-06-26T08:55:52.148Z,56.2
2019-06-26T08:57:06.335Z,56.5
2019-06-26T08:58:20.374Z,55.3
2019-06-26T08:59:34.493Z,56.5
2019-06-26T09:00:48.713Z,58.8
2019-06-26T09:02:02.741Z,57.7
2019-06-26T09:03:16.915Z,54.7
2019-06-26T09:04:30.979Z,54.4
2019-06-26T09:05:45.105Z,53.9
2019-06-26T09:06:59.401Z,55.3
2019-06-26T09:08:13.348Z,57.7
2019-06-26T09:09:27.519Z,53.9
2019-06-26T09:10:41.631Z,54.7
2019-06-26T09:11:55.731Z,57.4
2019-06-26T09:13:09.851Z,54.5
2019-06-26T09:14:23.999Z,53.8
2019-06-26T09:15:38.132Z,54.6
2019-06-26T09:16:52.232Z,56.1
2019-06-26T09:18:06.456Z,56.4
2019-06-26T09:19:20.483Z,57.9
2019-06-26T09:20:34.615Z,58.5
2019-06-26T09:21:52.056Z,57.6
2019-06-26T09:23:06.254Z,56.2
2019-06-26T09:24:16.994Z,56.3
2019-06-26T09:25:31.102Z,56.7
2019-06-26T09:26:45.212Z,55.9
2019-06-26T09:29:13.457Z,54.2
2019-06-26T09:31:41.714Z,53.6
2019-06-26T09:32:55.850Z,53
2019-06-26T09:34:09.957Z,54
2019-06-26T09:35:24.115Z,55
2019-06-26T09:36:38.204Z,54.2
2019-06-26T09:37:52.336Z,54.8
2019-06-26T09:39:06.541Z,56.9
2019-06-26T09:40:20.581Z,54.6
2019-06-26T09:41:34.782Z,55.9
2019-06-26T09:42:48.849Z,56.1
2019-06-26T09:44:03.002Z,56.4
2019-06-26T09:45:17.067Z,52.2
2019-06-26T09:46:31.227Z,52.1
2019-06-26T09:47:45.327Z,53.3
2019-06-26T09:48:59.521Z,53.7
2019-06-26T09:50:13.578Z,54.4
2019-06-26T09:51:27.700Z,55
2019-06-26T09:52:41.825Z,57
2019-06-26T09:53:55.937Z,55.9
2019-06-26T09:56:24.199Z,56.6
2019-06-26T09:57:38.379Z,54.4
2019-06-26T09:58:52.480Z,54.6
2019-06-26T10:00:06.674Z,54.6
2019-06-26T10:01:20.770Z,54.3
2019-06-26T10:02:34.845Z,56
2019-06-26T10:03:48.944Z,55.8
2019-06-26T10:06:17.216Z,53.6
2019-06-26T10:08:45.456Z,55.6
2019-06-26T10:09:59.554Z,54.8
2019-06-26T10:11:13.682Z,55.9
2019-06-26T10:12:27.825Z,56
2019-06-26T10:13:42.044Z,54.7
2019-06-26T10:14:56.182Z,55.1
2019-06-26T10:16:10.230Z,56.6
2019-06-26T10:17:24.308Z,56.3
2019-06-26T10:18:38.434Z,56.8
2019-06-26T10:21:06.708Z,56.5
2019-06-26T10:23:34.979Z,57.6
2019-06-26T10:24:49.096Z,56.4
2019-06-26T10:26:03.238Z,54.5
2019-06-26T10:27:17.323Z,55.9
2019-06-26T10:28:31.503Z,54.6
2019-06-26T10:29:45.562Z,56.2
2019-06-26T10:33:27.916Z,56.7
2019-06-26T10:34:42.046Z,56.2
2019-06-26T10:35:56.183Z,57
2019-06-26T10:37:10.498Z,56.5
2019-06-26T10:39:38.548Z,57.4
2019-06-26T10:40:52.764Z,56.6
2019-06-26T10:42:06.905Z,57.9
2019-06-26T10:43:20.922Z,56.5
2019-06-26T10:45:49.161Z,54.5
2019-06-26T10:47:03.324Z,54.1
2019-06-26T10:48:17.412Z,54.2
2019-06-26T10:49:31.538Z,55.1
2019-06-26T10:50:45.684Z,53.8
2019-06-26T10:51:59.810Z,54.7
2019-06-26T10:53:13.988Z,54.5
2019-06-26T10:54:28.037Z,54.1
2019-06-26T10:55:42.210Z,56.1
2019-06-26T10:58:10.420Z,54.7
2019-06-26T10:59:24.727Z,53.1
2019-06-26T11:01:52.898Z,55
2019-06-26T11:03:06.936Z,54
2019-06-26T11:04:21.037Z,54.2
2019-06-26T11:05:35.169Z,52.4
2019-06-26T11:06:49.290Z,52.5
2019-06-26T11:10:31.695Z,55.3
2019-06-26T11:11:45.799Z,56
2019-06-26T11:13:00.158Z,56.3
2019-06-26T11:14:14.080Z,57
2019-06-26T11:15:28.158Z,57.8
2019-06-26T11:16:42.378Z,60.2
2019-06-26T11:17:56.536Z,57.9
2019-06-26T11:19:10.816Z,59.1
2019-06-26T11:20:24.666Z,56.4
2019-06-26T11:24:07.033Z,58.1
2019-06-26T11:25:21.153Z,57.7
2019-06-26T11:26:35.271Z,58.1
2019-06-26T11:27:49.408Z,57.4
2019-06-26T11:29:03.590Z,56
2019-06-26T11:30:17.647Z,56.1
2019-06-26T11:31:31.775Z,57.8
2019-06-26T11:32:45.981Z,55.4
2019-06-26T11:34:00.017Z,55.6
2019-06-26T11:35:14.177Z,56.2
2019-06-26T11:36:28.270Z,56.4
2019-06-26T11:37:42.506Z,55.7
2019-06-26T11:38:56.569Z,53.8
2019-06-26T11:40:10.657Z,54.6
2019-06-26T11:42:38.923Z,53.7
2019-06-26T11:43:53.056Z,54.5
2019-06-26T11:45:07.145Z,53.6
2019-06-26T11:47:35.418Z,57.3
2019-06-26T11:48:49.564Z,56.6
2019-06-26T11:50:03.794Z,59.5
2019-06-26T11:52:31.884Z,56.1
2019-06-26T11:53:46.020Z,56.2
2019-06-26T11:55:00.216Z,56.5
2019-06-26T11:56:14.325Z,56.6
2019-06-26T11:57:28.424Z,55.7
2019-06-26T11:59:56.624Z,55
2019-06-26T12:01:10.737Z,54.3
2019-06-26T12:02:24.861Z,54.4
2019-06-26T12:03:38.980Z,51.6
2019-06-26T12:04:53.114Z,52.3
2019-06-26T12:06:07.240Z,54.8
2019-06-26T12:07:21.407Z,51.1
2019-06-26T12:09:49.654Z,49.5
2019-06-26T12:12:17.990Z,53.4
2019-06-26T12:13:31.960Z,54.9
2019-06-26T12:14:46.090Z,55
2019-06-26T12:16:00.407Z,56
2019-06-26T12:17:14.369Z,57.2
2019-06-26T12:18:28.484Z,56.4
2019-06-26T12:19:42.572Z,54.3
2019-06-26T12:20:56.701Z,51.3
2019-06-26T12:22:10.807Z,50.1
2019-06-26T12:24:39.216Z,50.1
2019-06-26T12:25:53.194Z,51
2019-06-26T12:27:07.311Z,52.3
2019-06-26T12:28:21.493Z,53.5
2019-06-26T12:29:35.610Z,53.1
2019-06-26T12:30:49.858Z,54.4
2019-06-26T12:32:03.855Z,53.2
2019-06-26T12:33:17.920Z,53
2019-06-26T12:34:32.085Z,54.3
2019-06-26T12:37:00.279Z,53.4
2019-06-26T12:38:14.523Z,54.2
2019-06-26T12:39:28.560Z,53.7
2019-06-26T12:40:42.657Z,54
2019-06-26T12:41:56.797Z,52.6
2019-06-26T12:43:10.993Z,53.9
2019-06-26T12:44:25.031Z,53.9
2019-06-26T12:45:39.251Z,53.1
2019-06-26T12:46:53.268Z,50
2019-06-26T12:49:23.559Z,51
2019-06-26T12:50:35.656Z,52.4
2019-06-26T12:51:49.838Z,51.5
2019-06-26T12:53:03.954Z,51.3
2019-06-26T12:54:18.001Z,51.7
2019-06-26T12:55:32.129Z,54.6
2019-06-26T12:56:46.249Z,54.4
2019-06-26T12:58:00.507Z,55.9
2019-06-26T12:59:14.478Z,55.2
2019-06-26T13:01:42.722Z,56.9
2019-06-26T13:02:56.888Z,56.6
2019-06-26T13:04:11.047Z,57.9
2019-06-26T13:05:25.194Z,55.3
2019-06-26T13:06:39.345Z,53
2019-06-26T13:07:53.454Z,50.4
2019-06-26T13:09:07.476Z,50.3
2019-06-26T13:10:21.578Z,48.5
2019-06-26T13:11:35.906Z,48.6
2019-06-26T13:12:49.925Z,51.2
2019-06-26T13:15:18.071Z,55.1
2019-06-26T13:16:32.187Z,55.3
2019-06-26T13:17:46.334Z,52.5
2019-06-26T13:19:00.592Z,53
2019-06-26T13:20:14.705Z,52.4
2019-06-26T13:21:28.856Z,51.2
2019-06-26T13:22:42.819Z,51.8
2019-06-26T13:23:56.918Z,50.8
2019-06-26T13:26:25.163Z,49.4
2019-06-26T13:27:39.405Z,48.6
2019-06-26T13:28:53.408Z,51.2
2019-06-26T13:30:07.565Z,53.6
2019-06-26T13:31:21.843Z,50.9
2019-06-26T13:33:50.051Z,49.6
2019-06-26T13:35:04.153Z,47.5
2019-06-26T13:36:18.149Z,48.3
2019-06-26T13:38:46.407Z,50.1
2019-06-26T13:40:00.527Z,51.3
2019-06-26T13:41:14.631Z,51.5
2019-06-26T13:42:28.824Z,48.8
2019-06-26T13:43:42.941Z,48.8
2019-06-26T13:44:56.998Z,49.6
2019-06-26T13:46:11.112Z,53.4
2019-06-26T13:47:25.252Z,54.5
2019-06-26T13:48:39.475Z,53.8
2019-06-26T13:51:07.748Z,53.9
2019-06-26T13:52:21.875Z,53.7
2019-06-26T13:53:35.848Z,49.7
2019-06-26T13:54:50.020Z,48.6
2019-06-26T13:56:04.097Z,48.3
2019-06-26T13:57:18.231Z,47.8
2019-06-26T13:58:32.333Z,49
2019-06-26T13:59:46.449Z,47.3
2019-06-26T14:01:00.647Z,46.4
2019-06-26T14:03:28.934Z,47.5
2019-06-26T14:04:42.937Z,47.7
2019-06-26T14:05:57.080Z,48.4
2019-06-26T14:07:11.182Z,47.9
2019-06-26T14:08:25.312Z,46.5
2019-06-26T14:09:39.462Z,46.5
2019-06-26T14:10:53.556Z,46.2
2019-06-26T14:12:07.689Z,46
2019-06-26T14:13:21.795Z,45.9
2019-06-26T14:15:50.124Z,45.6
2019-06-26T14:17:04.157Z,45.5
2019-06-26T14:18:18.292Z,45.8
2019-06-26T14:19:32.413Z,46.6
2019-06-26T14:20:46.545Z,46.5
2019-06-26T14:22:00.724Z,45.9
2019-06-26T14:23:14.790Z,46.1
2019-06-26T14:24:28.898Z,46.1
2019-06-26T14:25:43.012Z,45
2019-06-26T14:28:11.323Z,46.3
2019-06-26T14:29:25.395Z,44.8
2019-06-26T14:30:39.502Z,45.5
2019-06-26T14:31:53.656Z,46.5
2019-06-26T14:33:07.762Z,46.6
2019-06-26T14:35:36.104Z,46.4
2019-06-26T14:36:50.220Z,45.7
2019-06-26T14:38:04.231Z,47.3
2019-06-26T14:40:32.476Z,48.1
2019-06-26T14:41:46.645Z,48.3
2019-06-26T14:43:00.726Z,48.3
2019-06-26T14:44:14.868Z,49.6
2019-06-26T14:45:28.967Z,48.8
2019-06-26T14:46:43.171Z,50.6
2019-06-26T14:47:57.290Z,50.7
2019-06-26T14:49:13.279Z,49.8
2019-06-26T14:50:25.514Z,50.7
2019-06-26T14:52:53.689Z,50.6
2019-06-26T14:54:07.827Z,50.5
2019-06-26T14:55:22.083Z,50.8
2019-06-26T14:56:36.062Z,49.7
2019-06-26T14:57:50.198Z,49.8
2019-06-26T14:59:04.403Z,49.7
2019-06-26T15:00:18.462Z,49.4
2019-06-26T15:01:32.556Z,49.6
2019-06-26T15:02:46.671Z,49.2
2019-06-26T15:05:14.999Z,50.8
2019-06-26T15:06:30.566Z,50.1
2019-06-26T15:07:43.169Z,50.3
2019-06-26T15:08:57.326Z,49.4
2019-06-26T15:10:11.472Z,51.6
2019-06-26T15:11:25.607Z,51.1
2019-06-26T15:12:39.651Z,50.9
2019-06-26T15:13:53.768Z,49.9
2019-06-26T15:15:07.916Z,51.5
2019-06-26T15:17:36.554Z,49.9
2019-06-26T15:18:50.502Z,50.9
2019-06-26T15:20:04.378Z,51
2019-06-26T15:21:18.507Z,49.7
2019-06-26T15:23:46.748Z,51.7
2019-06-26T15:25:00.894Z,51.5
2019-06-26T15:26:15.067Z,51.9
2019-06-26T15:27:29.133Z,52.2
2019-06-26T15:29:57.373Z,51.4
2019-06-26T15:31:11.463Z,50.6
2019-06-26T15:32:25.605Z,50.3
2019-06-26T15:33:39.826Z,50.5
2019-06-26T15:34:53.911Z,50.9
2019-06-26T15:37:22.084Z,47.9
2019-06-26T15:38:36.205Z,48.7
2019-06-26T15:39:50.333Z,49.9
2019-06-26T15:42:18.624Z,50.3
2019-06-26T15:43:32.733Z,49.6
2019-06-26T15:44:46.853Z,50.7
2019-06-26T15:46:00.965Z,50.2
2019-06-26T15:47:15.067Z,50.1
2019-06-26T15:48:29.459Z,48.6
2019-06-26T15:49:43.298Z,48.9
2019-06-26T15:52:11.619Z,48.8
2019-06-26T15:54:39.821Z,48.1
2019-06-26T15:55:53.942Z,46.2
2019-06-26T15:57:08.041Z,47.7
2019-06-26T15:58:22.139Z,47.8
2019-06-26T15:59:36.332Z,48.9
2019-06-26T16:00:50.379Z,48.3
2019-06-26T16:02:04.523Z,48.2
2019-06-26T16:03:18.673Z,49.7
2019-06-26T16:04:35.023Z,49.8
2019-06-26T16:07:00.995Z,50.2
2019-06-26T16:08:15.133Z,50.3
2019-06-26T16:09:29.286Z,49.8
2019-06-26T16:10:43.439Z,50.1
2019-06-26T16:11:57.601Z,49.9
2019-06-26T16:13:11.621Z,50.3
2019-06-26T16:14:25.807Z,51.2
2019-06-26T16:15:39.874Z,52.8
2019-06-26T16:16:53.973Z,52.8
2019-06-26T16:19:22.293Z,51.9
2019-06-26T16:20:36.409Z,53.1
2019-06-26T16:21:50.661Z,51.9
2019-06-26T16:23:04.653Z,50.6
2019-06-26T16:24:18.718Z,49.6
2019-06-26T16:25:34.683Z,47.8
2019-06-26T16:26:47.025Z,50.3
2019-06-26T16:28:01.107Z,50.2
2019-06-26T16:29:15.222Z,50.8
2019-06-26T16:31:43.433Z,51.4
2019-06-26T16:32:57.554Z,51
2019-06-26T16:34:11.710Z,51
2019-06-26T16:35:25.811Z,51.5
2019-06-26T16:36:39.912Z,51
2019-06-26T16:37:54.046Z,50.5
2019-06-26T16:39:08.236Z,51.7
2019-06-26T16:41:36.534Z,50.8
2019-06-26T16:44:04.638Z,50.2
2019-06-26T16:45:18.789Z,51.3
2019-06-26T16:46:32.890Z,49.8
2019-06-26T16:47:47.000Z,49.8
2019-06-26T16:49:01.137Z,50
2019-06-26T16:50:15.244Z,51.4
2019-06-26T16:51:29.455Z,50.4
2019-06-26T16:52:43.602Z,51.5
2019-06-26T16:53:57.618Z,52
2019-06-26T16:56:25.854Z,52.4
2019-06-26T16:57:40.018Z,52.5
2019-06-26T16:58:54.098Z,53.4
2019-06-26T17:00:08.320Z,52.4
2019-06-26T17:01:22.404Z,50.2
2019-06-26T17:02:36.531Z,52.2
2019-06-26T17:03:50.649Z,51.6
2019-06-26T17:05:05.017Z,51.9
2019-06-26T17:06:18.885Z,50.9
2019-06-26T17:08:47.089Z,51.2
2019-06-26T17:10:01.188Z,50.8
2019-06-26T17:11:15.309Z,51.4
2019-06-26T17:12:29.496Z,51.9
2019-06-26T17:13:43.556Z,51.7
2019-06-26T17:14:57.670Z,52.3
2019-06-26T17:16:14.871Z,53.3
2019-06-26T17:17:30.096Z,52.1
2019-06-26T17:18:46.483Z,53.3
2019-06-26T17:21:08.276Z,51.3
2019-06-26T17:22:22.408Z,51.8
2019-06-26T17:23:36.708Z,51.3
2019-06-26T17:24:50.641Z,51.4
2019-06-26T17:26:04.764Z,50.5
2019-06-26T17:27:18.875Z,51.8
2019-06-26T17:28:33.035Z,51.3
2019-06-26T17:29:49.513Z,51.6
2019-06-26T17:31:04.713Z,51.8
2019-06-26T17:33:29.476Z,53.4
2019-06-26T17:34:43.617Z,53
2019-06-26T17:35:59.626Z,51.8
2019-06-26T17:37:11.873Z,52
2019-06-26T17:38:25.962Z,51.6
2019-06-26T17:39:40.119Z,51.3
2019-06-26T17:40:54.224Z,52
2019-06-26T17:42:08.400Z,52.3
2019-06-26T17:43:22.492Z,53.7
2019-06-26T17:45:50.694Z,53.4
2019-06-26T17:47:04.865Z,52.4
2019-06-26T17:48:21.368Z,52
2019-06-26T17:49:33.052Z,53.6
2019-06-26T17:50:47.256Z,53.4
2019-06-26T17:52:01.310Z,52.1
2019-06-26T17:53:15.499Z,52.6
2019-06-26T17:54:29.523Z,53.1
2019-06-26T17:55:43.700Z,52.4
2019-06-26T17:58:11.972Z,52.9
2019-06-26T17:59:26.071Z,53
2019-06-26T18:00:40.165Z,51.7
2019-06-26T18:01:54.277Z,53.4
2019-06-26T18:03:08.379Z,54
2019-06-26T18:04:22.517Z,52.8
2019-06-26T18:05:36.722Z,53.6
2019-06-26T18:06:51.332Z,54.1
2019-06-26T18:08:04.911Z,53.8
2019-06-26T18:10:35.094Z,52.3
2019-06-26T18:11:47.257Z,53.1
2019-06-26T18:13:01.341Z,53.7
2019-06-26T18:14:15.513Z,53.9
2019-06-26T18:15:30.059Z,53.1
2019-06-26T18:16:43.695Z,54.1
2019-06-26T18:17:57.840Z,54.7
2019-06-26T18:19:11.968Z,54.4
2019-06-26T18:20:26.105Z,54.3
2019-06-26T18:22:54.332Z,54
2019-06-26T18:24:09.265Z,54.2
2019-06-26T18:25:22.799Z,55.1
2019-06-26T18:26:36.670Z,55.2
2019-06-26T18:27:50.833Z,54.7
2019-06-26T18:29:04.952Z,55.3
2019-06-26T18:30:19.144Z,56.8
2019-06-26T18:31:33.149Z,57.2
2019-06-26T18:32:47.325Z,59.2
2019-06-26T18:35:15.593Z,58.8
2019-06-26T18:36:29.644Z,59.1
2019-06-26T18:37:43.749Z,59.1
2019-06-26T18:38:58.039Z,59.2
2019-06-26T18:40:12.008Z,59.7
2019-06-26T18:41:26.112Z,60.7
2019-06-26T18:42:40.275Z,60.2
2019-06-26T18:43:54.360Z,60.6
2019-06-26T18:45:08.479Z,60.3
2019-06-26T18:47:36.711Z,61.7
2019-06-26T18:48:52.447Z,63.5
2019-06-26T18:50:04.991Z,63.1
2019-06-26T18:51:19.174Z,62.3
2019-06-26T18:52:33.218Z,63.5
2019-06-26T18:53:47.419Z,62.3
2019-06-26T18:55:01.539Z,63.4
2019-06-26T18:56:15.568Z,63.6
2019-06-26T18:57:29.683Z,64.3
2019-06-26T18:59:57.945Z,64.1
2019-06-26T19:01:12.063Z,64.8
2019-06-26T19:02:26.241Z,64.1